Main page
METAR-TAF:

METAR-TAF

Airports :

Kansas City, Missouri, United States

Kansas City International Airport

latitude: 39-17-50N, longitude: 094-43-50W, elevation: 312 m

Current weather observation

The report was made 18 minutes ago, at 22:53 UTC
Wind 6 kt from variable directions
Temperature 25°C
Humidity 47%
Pressure 1018 hPa
Visibility: 16.1 km
Clear sky

METAR: KMCI 232253Z VRB06KT 10SM CLR 25/13 A3007 RMK AO2 SLP175 T02500133

Time: 18:11 (23:11 UTC)

Forecast

The report was made 5 hours and 51 minutes ago, at 17:20 UTC
Forecast valid from 23 at 18 UTC to 24 at 18 UTC
Wind 5 kt from variable directions
Visibility: 10 km
Clear sky
From 24 at 1200 UTC
Wind 7 kt from the South/Southeast
Visibility: 10 km
Few clouds at a height of 20000 ft

TAF: KMCI 231720Z 2318/2418 VRB05KT P6SM SKC FM241200 16007KT P6SM FEW200

Weather observations and forecasts of more than 4000 airports (METAR and TAF reports).

The available stations are represented by yellow and red dots on the map.

Hover mouse over dot to see the name of the station.

Then click to see weather observations and forecasts.

To change the map : click on the green buttons with a black cross to zoom in, on the green button with a dash to zoom out, or on the green arrows for adjacent maps.


METAR-TAF: